sensor_id;sensor_type;location;lat;lon;timestamp;temperature;humidity
24217;DHT22;12356;49.386;8.688;2023-04-03T00:01:45;6.50;14.60
24217;DHT22;12356;49.386;8.688;2023-04-03T00:04:15;6.50;14.90
24217;DHT22;12356;49.386;8.688;2023-04-03T00:06:46;6.30;14.80
24217;DHT22;12356;49.386;8.688;2023-04-03T00:09:16;6.30;15.20
24217;DHT22;12356;49.386;8.688;2023-04-03T00:11:47;6.30;15.50
24217;DHT22;12356;49.386;8.688;2023-04-03T00:14:17;6.30;16.40
24217;DHT22;12356;49.386;8.688;2023-04-03T00:16:48;6.30;16.50
24217;DHT22;12356;49.386;8.688;2023-04-03T00:19:18;6.30;16.90
24217;DHT22;12356;49.386;8.688;2023-04-03T00:21:49;6.30;17.50
24217;DHT22;12356;49.386;8.688;2023-04-03T00:24:20;6.30;17.90
24217;DHT22;12356;49.386;8.688;2023-04-03T00:26:51;6.30;17.50
24217;DHT22;12356;49.386;8.688;2023-04-03T00:29:21;6.20;18.10
24217;DHT22;12356;49.386;8.688;2023-04-03T00:31:52;6.20;18.20
24217;DHT22;12356;49.386;8.688;2023-04-03T00:34:23;6.10;18.10
24217;DHT22;12356;49.386;8.688;2023-04-03T00:36:53;6.10;18.40
24217;DHT22;12356;49.386;8.688;2023-04-03T00:39:24;6.00;16.20
24217;DHT22;12356;49.386;8.688;2023-04-03T00:41:54;6.00;14.30
24217;DHT22;12356;49.386;8.688;2023-04-03T00:46:59;6.00;16.00
24217;DHT22;12356;49.386;8.688;2023-04-03T00:49:29;6.00;16.20
24217;DHT22;12356;49.386;8.688;2023-04-03T00:52:00;5.90;15.50
24217;DHT22;12356;49.386;8.688;2023-04-03T00:54:31;5.90;16.20
24217;DHT22;12356;49.386;8.688;2023-04-03T00:57:02;5.90;17.50
24217;DHT22;12356;49.386;8.688;2023-04-03T00:59:36;5.90;17.00
24217;DHT22;12356;49.386;8.688;2023-04-03T01:02:08;5.90;17.00
24217;DHT22;12356;49.386;8.688;2023-04-03T01:04:41;5.90;17.10
24217;DHT22;12356;49.386;8.688;2023-04-03T01:07:17;5.90;17.20
24217;DHT22;12356;49.386;8.688;2023-04-03T01:09:51;5.90;17.90
24217;DHT22;12356;49.386;8.688;2023-04-03T01:12:32;5.90;17.90
24217;DHT22;12356;49.386;8.688;2023-04-03T01:15:11;5.90;17.80
24217;DHT22;12356;49.386;8.688;2023-04-03T01:17:46;5.80;17.90
24217;DHT22;12356;49.386;8.688;2023-04-03T01:23:39;5.70;17.20
24217;DHT22;12356;49.386;8.688;2023-04-03T01:26:11;5.80;17.50
24217;DHT22;12356;49.386;8.688;2023-04-03T01:28:42;5.70;17.00
24217;DHT22;12356;49.386;8.688;2023-04-03T01:31:23;5.60;17.20
24217;DHT22;12356;49.386;8.688;2023-04-03T01:33:55;5.70;17.50
24217;DHT22;12356;49.386;8.688;2023-04-03T01:36:30;5.80;18.00
24217;DHT22;12356;49.386;8.688;2023-04-03T01:39:01;5.80;17.40
24217;DHT22;12356;49.386;8.688;2023-04-03T01:41:32;5.70;17.00
24217;DHT22;12356;49.386;8.688;2023-04-03T01:44:04;5.60;17.70
24217;DHT22;12356;49.386;8.688;2023-04-03T01:46:35;5.60;16.90
24217;DHT22;12356;49.386;8.688;2023-04-03T01:49:05;5.50;16.90
24217;DHT22;12356;49.386;8.688;2023-04-03T01:51:36;5.50;18.00
24217;DHT22;12356;49.386;8.688;2023-04-03T01:54:07;5.50;18.10
24217;DHT22;12356;49.386;8.688;2023-04-03T01:56:37;5.50;17.70
24217;DHT22;12356;49.386;8.688;2023-04-03T01:59:09;5.40;17.30
24217;DHT22;12356;49.386;8.688;2023-04-03T02:01:39;5.40;16.00
24217;DHT22;12356;49.386;8.688;2023-04-03T02:04:11;5.40;15.70
24217;DHT22;12356;49.386;8.688;2023-04-03T02:06:42;5.50;15.60
24217;DHT22;12356;49.386;8.688;2023-04-03T02:09:13;5.50;16.60
24217;DHT22;12356;49.386;8.688;2023-04-03T02:11:43;5.60;16.50
24217;DHT22;12356;49.386;8.688;2023-04-03T02:14:14;5.60;15.90
24217;DHT22;12356;49.386;8.688;2023-04-03T02:16:44;5.60;15.30
24217;DHT22;12356;49.386;8.688;2023-04-03T02:19:15;5.60;15.10
24217;DHT22;12356;49.386;8.688;2023-04-03T02:21:46;5.60;15.20
24217;DHT22;12356;49.386;8.688;2023-04-03T02:24:17;5.70;15.00
24217;DHT22;12356;49.386;8.688;2023-04-03T02:26:47;5.60;14.70
24217;DHT22;12356;49.386;8.688;2023-04-03T02:29:18;5.60;14.60
24217;DHT22;12356;49.386;8.688;2023-04-03T02:31:49;5.60;14.90
24217;DHT22;12356;49.386;8.688;2023-04-03T02:34:19;5.60;15.20
24217;DHT22;12356;49.386;8.688;2023-04-03T02:36:50;5.70;15.50
24217;DHT22;12356;49.386;8.688;2023-04-03T02:39:20;5.70;14.90
24217;DHT22;12356;49.386;8.688;2023-04-03T02:41:51;5.70;15.30
24217;DHT22;12356;49.386;8.688;2023-04-03T02:44:22;5.80;15.20
24217;DHT22;12356;49.386;8.688;2023-04-03T02:46:53;5.70;15.30
24217;DHT22;12356;49.386;8.688;2023-04-03T02:49:24;5.70;14.40
24217;DHT22;12356;49.386;8.688;2023-04-03T02:51:55;5.60;14.50
24217;DHT22;12356;49.386;8.688;2023-04-03T02:54:25;5.60;14.40
24217;DHT22;12356;49.386;8.688;2023-04-03T02:56:58;5.60;14.70
24217;DHT22;12356;49.386;8.688;2023-04-03T02:59:30;5.50;14.80
24217;DHT22;12356;49.386;8.688;2023-04-03T03:02:00;5.50;15.80
24217;DHT22;12356;49.386;8.688;2023-04-03T03:04:31;5.40;15.60
24217;DHT22;12356;49.386;8.688;2023-04-03T03:07:02;5.40;15.80
24217;DHT22;12356;49.386;8.688;2023-04-03T03:09:32;5.30;16.30
24217;DHT22;12356;49.386;8.688;2023-04-03T03:12:03;5.30;17.00
24217;DHT22;12356;49.386;8.688;2023-04-03T03:14:34;5.20;16.40
24217;DHT22;12356;49.386;8.688;2023-04-03T03:17:05;5.20;16.60
24217;DHT22;12356;49.386;8.688;2023-04-03T03:19:35;5.30;17.50
24217;DHT22;12356;49.386;8.688;2023-04-03T03:22:06;5.30;16.80
24217;DHT22;12356;49.386;8.688;2023-04-03T03:24:36;5.20;16.40
24217;DHT22;12356;49.386;8.688;2023-04-03T03:27:07;5.20;15.90
24217;DHT22;12356;49.386;8.688;2023-04-03T03:29:37;5.30;17.00
24217;DHT22;12356;49.386;8.688;2023-04-03T03:32:08;5.20;16.80
24217;DHT22;12356;49.386;8.688;2023-04-03T03:34:38;5.30;17.30
24217;DHT22;12356;49.386;8.688;2023-04-03T03:37:09;5.30;17.30
24217;DHT22;12356;49.386;8.688;2023-04-03T03:39:39;5.30;18.30
24217;DHT22;12356;49.386;8.688;2023-04-03T03:42:10;5.30;18.40
24217;DHT22;12356;49.386;8.688;2023-04-03T03:44:41;5.30;18.00
24217;DHT22;12356;49.386;8.688;2023-04-03T03:47:12;5.10;18.00
24217;DHT22;12356;49.386;8.688;2023-04-03T03:49:42;5.10;17.50
24217;DHT22;12356;49.386;8.688;2023-04-03T03:52:13;5.00;18.10
24217;DHT22;12356;49.386;8.688;2023-04-03T03:54:44;4.90;18.70
24217;DHT22;12356;49.386;8.688;2023-04-03T03:57:14;4.80;18.00
24217;DHT22;12356;49.386;8.688;2023-04-03T03:59:45;4.70;19.00
24217;DHT22;12356;49.386;8.688;2023-04-03T04:02:17;4.70;18.80
24217;DHT22;12356;49.386;8.688;2023-04-03T04:04:48;4.70;18.70
24217;DHT22;12356;49.386;8.688;2023-04-03T04:07:19;4.80;18.10
24217;DHT22;12356;49.386;8.688;2023-04-03T04:09:50;4.70;18.00
24217;DHT22;12356;49.386;8.688;2023-04-03T04:12:20;4.80;18.20
24217;DHT22;12356;49.386;8.688;2023-04-03T04:14:51;4.80;18.40
24217;DHT22;12356;49.386;8.688;2023-04-03T04:17:21;4.80;18.20
24217;DHT22;12356;49.386;8.688;2023-04-03T04:19:52;4.70;19.10
24217;DHT22;12356;49.386;8.688;2023-04-03T04:22:22;4.60;18.10
24217;DHT22;12356;49.386;8.688;2023-04-03T04:24:53;4.50;18.60
24217;DHT22;12356;49.386;8.688;2023-04-03T04:27:23;4.50;18.60
24217;DHT22;12356;49.386;8.688;2023-04-03T04:29:54;4.40;18.40
24217;DHT22;12356;49.386;8.688;2023-04-03T04:32:25;4.50;18.80
24217;DHT22;12356;49.386;8.688;2023-04-03T04:34:55;4.50;19.10
24217;DHT22;12356;49.386;8.688;2023-04-03T04:37:26;4.50;19.00
24217;DHT22;12356;49.386;8.688;2023-04-03T04:39:56;4.50;19.30
24217;DHT22;12356;49.386;8.688;2023-04-03T04:42:27;4.50;19.30
24217;DHT22;12356;49.386;8.688;2023-04-03T04:44:58;4.60;19.90
24217;DHT22;12356;49.386;8.688;2023-04-03T04:47:29;4.50;19.60
24217;DHT22;12356;49.386;8.688;2023-04-03T04:50:00;4.50;19.40
24217;DHT22;12356;49.386;8.688;2023-04-03T04:52:30;4.50;19.80
24217;DHT22;12356;49.386;8.688;2023-04-03T04:55:01;4.50;20.60
24217;DHT22;12356;49.386;8.688;2023-04-03T04:57:31;4.60;20.20
24217;DHT22;12356;49.386;8.688;2023-04-03T05:00:02;4.50;19.80
24217;DHT22;12356;49.386;8.688;2023-04-03T05:02:33;4.40;19.80
24217;DHT22;12356;49.386;8.688;2023-04-03T05:05:04;4.40;20.30
24217;DHT22;12356;49.386;8.688;2023-04-03T05:07:34;4.40;21.10
24217;DHT22;12356;49.386;8.688;2023-04-03T05:10:06;4.40;21.10
24217;DHT22;12356;49.386;8.688;2023-04-03T05:12:37;4.50;21.20
24217;DHT22;12356;49.386;8.688;2023-04-03T05:15:08;4.50;21.40
24217;DHT22;12356;49.386;8.688;2023-04-03T05:17:39;4.50;21.20
24217;DHT22;12356;49.386;8.688;2023-04-03T05:20:10;4.60;21.30
24217;DHT22;12356;49.386;8.688;2023-04-03T05:22:40;4.50;21.40
24217;DHT22;12356;49.386;8.688;2023-04-03T05:25:11;4.50;21.40
24217;DHT22;12356;49.386;8.688;2023-04-03T05:27:41;4.50;21.90
24217;DHT22;12356;49.386;8.688;2023-04-03T05:30:12;4.50;22.20
24217;DHT22;12356;49.386;8.688;2023-04-03T05:32:43;4.50;22.20
24217;DHT22;12356;49.386;8.688;2023-04-03T05:35:14;4.40;22.40
24217;DHT22;12356;49.386;8.688;2023-04-03T05:37:44;4.40;23.00
24217;DHT22;12356;49.386;8.688;2023-04-03T05:40:15;4.30;23.70
24217;DHT22;12356;49.386;8.688;2023-04-03T05:42:46;4.50;23.70
24217;DHT22;12356;49.386;8.688;2023-04-03T05:45:16;4.40;23.90
24217;DHT22;12356;49.386;8.688;2023-04-03T05:47:47;4.40;23.80
24217;DHT22;12356;49.386;8.688;2023-04-03T05:50:17;4.50;23.50
24217;DHT22;12356;49.386;8.688;2023-04-03T05:52:49;4.60;22.70
24217;DHT22;12356;49.386;8.688;2023-04-03T05:55:21;4.60;22.50
24217;DHT22;12356;49.386;8.688;2023-04-03T05:57:51;4.60;22.40
24217;DHT22;12356;49.386;8.688;2023-04-03T06:00:22;4.70;22.40
24217;DHT22;12356;49.386;8.688;2023-04-03T06:02:53;4.70;22.40
24217;DHT22;12356;49.386;8.688;2023-04-03T06:05:23;4.70;22.40
24217;DHT22;12356;49.386;8.688;2023-04-03T06:07:54;4.70;22.50
24217;DHT22;12356;49.386;8.688;2023-04-03T06:10:26;4.70;23.00
24217;DHT22;12356;49.386;8.688;2023-04-03T06:12:56;4.70;23.10
24217;DHT22;12356;49.386;8.688;2023-04-03T06:15:27;4.80;23.40
24217;DHT22;12356;49.386;8.688;2023-04-03T06:17:57;4.80;22.90
24217;DHT22;12356;49.386;8.688;2023-04-03T06:20:28;4.90;23.20
24217;DHT22;12356;49.386;8.688;2023-04-03T06:22:58;4.80;23.20
24217;DHT22;12356;49.386;8.688;2023-04-03T06:25:29;4.90;23.10
24217;DHT22;12356;49.386;8.688;2023-04-03T06:28:00;4.90;23.00
24217;DHT22;12356;49.386;8.688;2023-04-03T06:30:31;4.90;23.50
24217;DHT22;12356;49.386;8.688;2023-04-03T06:33:01;5.00;23.40
24217;DHT22;12356;49.386;8.688;2023-04-03T06:35:32;5.00;22.90
24217;DHT22;12356;49.386;8.688;2023-04-03T06:38:05;5.10;23.50
24217;DHT22;12356;49.386;8.688;2023-04-03T06:40:39;5.10;22.60
24217;DHT22;12356;49.386;8.688;2023-04-03T06:43:10;5.10;22.90
24217;DHT22;12356;49.386;8.688;2023-04-03T06:45:41;5.10;22.90
24217;DHT22;12356;49.386;8.688;2023-04-03T06:48:12;5.10;22.40
24217;DHT22;12356;49.386;8.688;2023-04-03T06:50:43;5.10;22.20
24217;DHT22;12356;49.386;8.688;2023-04-03T06:53:13;5.20;22.40
24217;DHT22;12356;49.386;8.688;2023-04-03T06:55:44;5.30;21.80
24217;DHT22;12356;49.386;8.688;2023-04-03T06:58:14;5.40;21.80
24217;DHT22;12356;49.386;8.688;2023-04-03T07:00:47;5.50;21.60
24217;DHT22;12356;49.386;8.688;2023-04-03T07:03:18;5.50;20.40
24217;DHT22;12356;49.386;8.688;2023-04-03T07:05:48;5.60;20.60
24217;DHT22;12356;49.386;8.688;2023-04-03T07:08:19;5.60;21.10
24217;DHT22;12356;49.386;8.688;2023-04-03T07:10:50;5.70;20.30
24217;DHT22;12356;49.386;8.688;2023-04-03T07:13:20;5.70;20.40
24217;DHT22;12356;49.386;8.688;2023-04-03T07:15:51;5.80;20.60
24217;DHT22;12356;49.386;8.688;2023-04-03T07:18:22;5.80;19.40
24217;DHT22;12356;49.386;8.688;2023-04-03T07:20:52;5.80;19.00
24217;DHT22;12356;49.386;8.688;2023-04-03T07:23:23;5.80;19.40
24217;DHT22;12356;49.386;8.688;2023-04-03T07:25:55;5.90;19.20
24217;DHT22;12356;49.386;8.688;2023-04-03T07:28:26;6.00;19.00
24217;DHT22;12356;49.386;8.688;2023-04-03T07:31:05;6.10;18.00
24217;DHT22;12356;49.386;8.688;2023-04-03T07:33:38;6.20;17.60
24217;DHT22;12356;49.386;8.688;2023-04-03T07:36:10;6.20;17.10
24217;DHT22;12356;49.386;8.688;2023-04-03T07:38:41;6.30;17.00
24217;DHT22;12356;49.386;8.688;2023-04-03T07:41:14;6.30;16.00
24217;DHT22;12356;49.386;8.688;2023-04-03T07:43:45;6.30;15.60
24217;DHT22;12356;49.386;8.688;2023-04-03T07:46:17;6.30;14.80
24217;DHT22;12356;49.386;8.688;2023-04-03T07:48:48;6.40;15.60
24217;DHT22;12356;49.386;8.688;2023-04-03T07:51:18;6.60;15.30
24217;DHT22;12356;49.386;8.688;2023-04-03T07:53:50;6.60;14.60
24217;DHT22;12356;49.386;8.688;2023-04-03T07:56:20;6.60;13.40
24217;DHT22;12356;49.386;8.688;2023-04-03T07:58:51;6.70;13.20
24217;DHT22;12356;49.386;8.688;2023-04-03T08:01:22;6.70;13.10
24217;DHT22;12356;49.386;8.688;2023-04-03T08:03:52;6.80;12.90
24217;DHT22;12356;49.386;8.688;2023-04-03T08:06:23;6.80;12.90
24217;DHT22;12356;49.386;8.688;2023-04-03T08:08:53;6.80;11.10
24217;DHT22;12356;49.386;8.688;2023-04-03T08:11:24;6.90;11.50
24217;DHT22;12356;49.386;8.688;2023-04-03T08:13:56;6.90;10.90
24217;DHT22;12356;49.386;8.688;2023-04-03T08:16:27;6.90;10.60
24217;DHT22;12356;49.386;8.688;2023-04-03T08:18:57;7.00;10.30
24217;DHT22;12356;49.386;8.688;2023-04-03T08:21:28;7.00;9.60
24217;DHT22;12356;49.386;8.688;2023-04-03T08:23:59;7.00;7.60
24217;DHT22;12356;49.386;8.688;2023-04-03T08:26:29;7.00;8.40
24217;DHT22;12356;49.386;8.688;2023-04-03T08:29:01;7.10;8.20
24217;DHT22;12356;49.386;8.688;2023-04-03T08:31:31;7.20;7.40
24217;DHT22;12356;49.386;8.688;2023-04-03T08:34:02;7.20;5.80
24217;DHT22;12356;49.386;8.688;2023-04-03T08:36:33;7.10;4.40
24217;DHT22;12356;49.386;8.688;2023-04-03T08:39:03;7.10;4.90
24217;DHT22;12356;49.386;8.688;2023-04-03T08:44:23;7.20;5.00
24217;DHT22;12356;49.386;8.688;2023-04-03T08:49:45;7.20;4.60
24217;DHT22;12356;49.386;8.688;2023-04-03T08:52:39;7.20;4.20
24217;DHT22;12356;49.386;8.688;2023-04-03T08:58:25;7.20;4.10
24217;DHT22;12356;49.386;8.688;2023-04-03T09:01:04;7.30;4.00
24217;DHT22;12356;49.386;8.688;2023-04-03T09:03:38;7.30;4.00
24217;DHT22;12356;49.386;8.688;2023-04-03T09:06:20;7.30;5.10
24217;DHT22;12356;49.386;8.688;2023-04-03T09:09:12;7.30;3.40
24217;DHT22;12356;49.386;8.688;2023-04-03T09:11:55;7.40;3.60
24217;DHT22;12356;49.386;8.688;2023-04-03T09:23:39;7.50;1.00
24217;DHT22;12356;49.386;8.688;2023-04-03T09:26:21;7.60;1.90
24217;DHT22;12356;49.386;8.688;2023-04-03T09:28:59;7.70;2.10
24217;DHT22;12356;49.386;8.688;2023-04-03T09:31:37;7.60;1.00
24217;DHT22;12356;49.386;8.688;2023-04-03T09:34:22;7.60;1.00
24217;DHT22;12356;49.386;8.688;2023-04-03T09:36:56;7.60;1.00
24217;DHT22;12356;49.386;8.688;2023-04-03T09:39:28;7.70;1.00
24217;DHT22;12356;49.386;8.688;2023-04-03T09:42:00;7.80;1.00
24217;DHT22;12356;49.386;8.688;2023-04-03T09:44:34;7.90;1.00
24217;DHT22;12356;49.386;8.688;2023-04-03T09:47:28;7.90;1.00
24217;DHT22;12356;49.386;8.688;2023-04-03T09:50:19;7.90;1.00
24217;DHT22;12356;49.386;8.688;2023-04-03T09:52:51;8.10;1.00
24217;DHT22;12356;49.386;8.688;2023-04-03T09:55:26;8.20;1.00
24217;DHT22;12356;49.386;8.688;2023-04-03T09:58:28;8.30;1.00
24217;DHT22;12356;49.386;8.688;2023-04-03T10:01:01;8.50;1.00
24217;DHT22;12356;49.386;8.688;2023-04-03T10:03:34;8.60;1.00
24217;DHT22;12356;49.386;8.688;2023-04-03T10:06:23;8.70;1.00
24217;DHT22;12356;49.386;8.688;2023-04-03T10:09:04;8.70;1.00
24217;DHT22;12356;49.386;8.688;2023-04-03T10:11:35;8.60;1.00
24217;DHT22;12356;49.386;8.688;2023-04-03T10:14:16;8.70;1.00
24217;DHT22;12356;49.386;8.688;2023-04-03T10:16:53;8.70;1.00
24217;DHT22;12356;49.386;8.688;2023-04-03T10:20:00;8.70;1.00
24217;DHT22;12356;49.386;8.688;2023-04-03T10:22:58;8.80;1.00
24217;DHT22;12356;49.386;8.688;2023-04-03T10:25:40;8.90;1.00
24217;DHT22;12356;49.386;8.688;2023-04-03T10:34:05;9.40;1.00
24217;DHT22;12356;49.386;8.688;2023-04-03T10:39:12;9.10;1.00
24217;DHT22;12356;49.386;8.688;2023-04-03T10:44:52;8.80;1.00
24217;DHT22;12356;49.386;8.688;2023-04-03T10:47:53;8.80;1.00
24217;DHT22;12356;49.386;8.688;2023-04-03T10:50:49;8.80;1.00
24217;DHT22;12356;49.386;8.688;2023-04-03T10:59:30;9.00;1.00
24217;DHT22;12356;49.386;8.688;2023-04-03T11:02:18;9.00;1.00
24217;DHT22;12356;49.386;8.688;2023-04-03T11:05:03;9.00;1.00
24217;DHT22;12356;49.386;8.688;2023-04-03T11:07:40;9.10;1.00
24217;DHT22;12356;49.386;8.688;2023-04-03T11:10:36;9.30;1.00
24217;DHT22;12356;49.386;8.688;2023-04-03T11:13:21;9.60;1.00
24217;DHT22;12356;49.386;8.688;2023-04-03T11:15:54;9.70;1.00
24217;DHT22;12356;49.386;8.688;2023-04-03T11:18:46;9.90;1.00
24217;DHT22;12356;49.386;8.688;2023-04-03T11:21:23;10.00;1.00
24217;DHT22;12356;49.386;8.688;2023-04-03T11:23:57;10.00;1.00
24217;DHT22;12356;49.386;8.688;2023-04-03T11:26:32;10.20;1.00
24217;DHT22;12356;49.386;8.688;2023-04-03T11:29:15;10.10;1.00
24217;DHT22;12356;49.386;8.688;2023-04-03T11:34:44;9.90;1.00
24217;DHT22;12356;49.386;8.688;2023-04-03T11:48:41;9.40;1.00
24217;DHT22;12356;49.386;8.688;2023-04-03T11:53:47;9.40;1.00
24217;DHT22;12356;49.386;8.688;2023-04-03T12:04:20;9.00;1.00
24217;DHT22;12356;49.386;8.688;2023-04-03T12:07:02;9.00;1.00
24217;DHT22;12356;49.386;8.688;2023-04-03T12:12:28;8.70;1.00
24217;DHT22;12356;49.386;8.688;2023-04-03T12:17:53;8.60;1.00
24217;DHT22;12356;49.386;8.688;2023-04-03T12:23:25;8.70;1.00
24217;DHT22;12356;49.386;8.688;2023-04-03T12:26:01;8.70;1.00
24217;DHT22;12356;49.386;8.688;2023-04-03T12:28:39;8.80;1.00
24217;DHT22;12356;49.386;8.688;2023-04-03T12:31:11;8.80;1.00
24217;DHT22;12356;49.386;8.688;2023-04-03T12:34:00;8.90;1.00
24217;DHT22;12356;49.386;8.688;2023-04-03T12:36:55;9.00;1.00
24217;DHT22;12356;49.386;8.688;2023-04-03T12:39:52;9.00;1.00
24217;DHT22;12356;49.386;8.688;2023-04-03T12:42:59;9.00;1.00
24217;DHT22;12356;49.386;8.688;2023-04-03T12:48:33;9.20;1.00
24217;DHT22;12356;49.386;8.688;2023-04-03T12:51:07;9.40;1.00
24217;DHT22;12356;49.386;8.688;2023-04-03T12:53:37;9.70;1.00
24217;DHT22;12356;49.386;8.688;2023-04-03T12:56:41;9.80;1.00
24217;DHT22;12356;49.386;8.688;2023-04-03T13:02:00;9.60;1.00
24217;DHT22;12356;49.386;8.688;2023-04-03T13:04:31;9.50;1.00
24217;DHT22;12356;49.386;8.688;2023-04-03T13:07:02;9.40;1.00
24217;DHT22;12356;49.386;8.688;2023-04-03T13:09:33;9.30;1.00
24217;DHT22;12356;49.386;8.688;2023-04-03T13:12:13;9.30;1.00
24217;DHT22;12356;49.386;8.688;2023-04-03T13:15:12;9.10;1.00
24217;DHT22;12356;49.386;8.688;2023-04-03T13:17:43;9.00;1.00
24217;DHT22;12356;49.386;8.688;2023-04-03T13:20:30;8.80;1.00
24217;DHT22;12356;49.386;8.688;2023-04-03T13:23:08;8.80;1.00
24217;DHT22;12356;49.386;8.688;2023-04-03T13:25:42;8.80;1.00
24217;DHT22;12356;49.386;8.688;2023-04-03T13:28:18;8.80;1.00
24217;DHT22;12356;49.386;8.688;2023-04-03T13:34:05;8.80;1.00
24217;DHT22;12356;49.386;8.688;2023-04-03T13:36:58;8.90;1.00
24217;DHT22;12356;49.386;8.688;2023-04-03T13:39:30;8.90;1.00
24217;DHT22;12356;49.386;8.688;2023-04-03T13:42:16;9.10;1.00
24217;DHT22;12356;49.386;8.688;2023-04-03T13:44:47;9.20;1.00
24217;DHT22;12356;49.386;8.688;2023-04-03T13:47:20;9.40;1.00
24217;DHT22;12356;49.386;8.688;2023-04-03T13:50:20;9.30;1.00
24217;DHT22;12356;49.386;8.688;2023-04-03T13:53:13;9.20;1.00
24217;DHT22;12356;49.386;8.688;2023-04-03T13:58:34;9.20;1.00
24217;DHT22;12356;49.386;8.688;2023-04-03T14:01:38;9.30;1.00
24217;DHT22;12356;49.386;8.688;2023-04-03T14:04:14;9.50;1.00
24217;DHT22;12356;49.386;8.688;2023-04-03T14:06:46;9.60;1.00
24217;DHT22;12356;49.386;8.688;2023-04-03T14:09:20;9.60;1.00
24217;DHT22;12356;49.386;8.688;2023-04-03T14:11:59;9.80;1.00
24217;DHT22;12356;49.386;8.688;2023-04-03T14:14:33;9.80;1.00
24217;DHT22;12356;49.386;8.688;2023-04-03T14:17:14;9.70;1.00
24217;DHT22;12356;49.386;8.688;2023-04-03T14:19:47;9.50;1.00
24217;DHT22;12356;49.386;8.688;2023-04-03T14:22:30;9.40;1.00
24217;DHT22;12356;49.386;8.688;2023-04-03T14:25:01;9.40;1.00
24217;DHT22;12356;49.386;8.688;2023-04-03T14:27:38;9.40;1.00
24217;DHT22;12356;49.386;8.688;2023-04-03T14:30:15;9.40;1.00
24217;DHT22;12356;49.386;8.688;2023-04-03T14:32:47;9.50;1.00
24217;DHT22;12356;49.386;8.688;2023-04-03T14:35:18;9.60;1.00
24217;DHT22;12356;49.386;8.688;2023-04-03T14:37:49;9.70;1.00
24217;DHT22;12356;49.386;8.688;2023-04-03T14:40:26;9.90;1.00
24217;DHT22;12356;49.386;8.688;2023-04-03T14:42:57;10.00;1.00
24217;DHT22;12356;49.386;8.688;2023-04-03T14:45:28;10.00;1.00
24217;DHT22;12356;49.386;8.688;2023-04-03T14:47:59;10.20;1.00
24217;DHT22;12356;49.386;8.688;2023-04-03T14:50:30;10.20;1.00
24217;DHT22;12356;49.386;8.688;2023-04-03T14:53:01;10.10;1.00
24217;DHT22;12356;49.386;8.688;2023-04-03T14:55:31;10.00;1.00
24217;DHT22;12356;49.386;8.688;2023-04-03T14:58:02;10.10;1.00
24217;DHT22;12356;49.386;8.688;2023-04-03T15:00:32;10.20;1.00
24217;DHT22;12356;49.386;8.688;2023-04-03T15:03:03;10.40;1.00
24217;DHT22;12356;49.386;8.688;2023-04-03T15:05:35;10.30;1.00
24217;DHT22;12356;49.386;8.688;2023-04-03T15:08:22;10.30;1.00
24217;DHT22;12356;49.386;8.688;2023-04-03T15:10:54;10.30;1.00
24217;DHT22;12356;49.386;8.688;2023-04-03T15:13:26;10.20;1.00
24217;DHT22;12356;49.386;8.688;2023-04-03T15:15:57;10.20;1.00
24217;DHT22;12356;49.386;8.688;2023-04-03T15:18:32;10.20;1.00
24217;DHT22;12356;49.386;8.688;2023-04-03T15:21:05;10.20;1.00
24217;DHT22;12356;49.386;8.688;2023-04-03T15:23:36;10.30;1.00
24217;DHT22;12356;49.386;8.688;2023-04-03T15:26:06;10.10;1.00
24217;DHT22;12356;49.386;8.688;2023-04-03T15:28:42;10.10;1.00
24217;DHT22;12356;49.386;8.688;2023-04-03T15:31:12;10.10;1.00
24217;DHT22;12356;49.386;8.688;2023-04-03T15:33:43;10.00;1.00
24217;DHT22;12356;49.386;8.688;2023-04-03T15:36:14;9.90;1.00
24217;DHT22;12356;49.386;8.688;2023-04-03T15:38:44;10.00;1.00
24217;DHT22;12356;49.386;8.688;2023-04-03T15:41:15;9.90;1.00
24217;DHT22;12356;49.386;8.688;2023-04-03T15:43:45;9.80;1.00
24217;DHT22;12356;49.386;8.688;2023-04-03T15:46:16;9.80;1.00
24217;DHT22;12356;49.386;8.688;2023-04-03T15:48:47;9.90;1.00
24217;DHT22;12356;49.386;8.688;2023-04-03T15:51:17;9.90;1.00
24217;DHT22;12356;49.386;8.688;2023-04-03T15:53:48;10.00;1.00
24217;DHT22;12356;49.386;8.688;2023-04-03T15:56:18;9.90;1.00
24217;DHT22;12356;49.386;8.688;2023-04-03T15:58:49;9.90;1.00
24217;DHT22;12356;49.386;8.688;2023-04-03T16:01:19;9.90;1.00
24217;DHT22;12356;49.386;8.688;2023-04-03T16:03:50;9.80;1.00
24217;DHT22;12356;49.386;8.688;2023-04-03T16:06:21;9.80;1.00
24217;DHT22;12356;49.386;8.688;2023-04-03T16:08:51;9.80;1.00
24217;DHT22;12356;49.386;8.688;2023-04-03T16:11:27;9.80;1.00
24217;DHT22;12356;49.386;8.688;2023-04-03T16:13:58;9.90;1.00
24217;DHT22;12356;49.386;8.688;2023-04-03T16:16:29;9.90;1.00
24217;DHT22;12356;49.386;8.688;2023-04-03T16:19:00;9.90;1.00
24217;DHT22;12356;49.386;8.688;2023-04-03T16:21:32;9.90;1.00
24217;DHT22;12356;49.386;8.688;2023-04-03T16:24:03;10.00;1.00
24217;DHT22;12356;49.386;8.688;2023-04-03T16:26:34;9.90;1.00
24217;DHT22;12356;49.386;8.688;2023-04-03T16:29:04;9.90;1.00
24217;DHT22;12356;49.386;8.688;2023-04-03T16:31:35;9.90;1.00
24217;DHT22;12356;49.386;8.688;2023-04-03T16:34:05;9.90;1.00
24217;DHT22;12356;49.386;8.688;2023-04-03T16:36:36;9.80;1.00
24217;DHT22;12356;49.386;8.688;2023-04-03T16:39:07;9.80;1.00
24217;DHT22;12356;49.386;8.688;2023-04-03T16:41:40;9.80;1.00
24217;DHT22;12356;49.386;8.688;2023-04-03T16:44:10;9.70;1.00
24217;DHT22;12356;49.386;8.688;2023-04-03T16:46:41;9.70;1.00
24217;DHT22;12356;49.386;8.688;2023-04-03T16:49:12;9.60;1.00
24217;DHT22;12356;49.386;8.688;2023-04-03T16:51:43;9.60;1.00
24217;DHT22;12356;49.386;8.688;2023-04-03T16:54:13;9.50;1.00
24217;DHT22;12356;49.386;8.688;2023-04-03T16:56:44;9.50;1.00
24217;DHT22;12356;49.386;8.688;2023-04-03T16:59:14;9.40;1.00
24217;DHT22;12356;49.386;8.688;2023-04-03T17:01:45;9.30;1.00
24217;DHT22;12356;49.386;8.688;2023-04-03T17:04:16;9.20;1.00
24217;DHT22;12356;49.386;8.688;2023-04-03T17:06:47;9.20;1.00
24217;DHT22;12356;49.386;8.688;2023-04-03T17:09:18;9.20;1.00
24217;DHT22;12356;49.386;8.688;2023-04-03T17:11:50;9.20;1.00
24217;DHT22;12356;49.386;8.688;2023-04-03T17:14:21;9.20;1.00
24217;DHT22;12356;49.386;8.688;2023-04-03T17:16:51;9.20;1.00
24217;DHT22;12356;49.386;8.688;2023-04-03T17:19:22;9.00;1.00
24217;DHT22;12356;49.386;8.688;2023-04-03T17:21:54;8.90;1.00
24217;DHT22;12356;49.386;8.688;2023-04-03T17:24:25;8.90;1.00
24217;DHT22;12356;49.386;8.688;2023-04-03T17:26:56;8.80;1.00
24217;DHT22;12356;49.386;8.688;2023-04-03T17:29:26;8.80;1.00
24217;DHT22;12356;49.386;8.688;2023-04-03T17:31:57;8.80;1.00
24217;DHT22;12356;49.386;8.688;2023-04-03T17:34:27;8.80;1.00
24217;DHT22;12356;49.386;8.688;2023-04-03T17:36:58;8.70;1.00
24217;DHT22;12356;49.386;8.688;2023-04-03T17:39:29;8.60;1.00
24217;DHT22;12356;49.386;8.688;2023-04-03T17:41:59;8.50;1.00
24217;DHT22;12356;49.386;8.688;2023-04-03T17:44:30;8.50;1.00
24217;DHT22;12356;49.386;8.688;2023-04-03T17:47:02;8.40;1.00
24217;DHT22;12356;49.386;8.688;2023-04-03T17:49:32;8.30;1.00
24217;DHT22;12356;49.386;8.688;2023-04-03T17:52:03;8.30;1.00
24217;DHT22;12356;49.386;8.688;2023-04-03T17:54:34;8.40;1.00
24217;DHT22;12356;49.386;8.688;2023-04-03T17:57:04;8.30;1.00
24217;DHT22;12356;49.386;8.688;2023-04-03T17:59:36;8.30;1.00